Time;durP1;ratioP1;P1;durP2;ratioP2;P2;SDS_P1;SDS_P2;PMS_P1;PMS_P2;Temp;Humidity;BMP_temperature;BMP_pressure;BME280_temperature;BME280_humidity;BME280_pressure;Samples;Min_cycle;Max_cycle;Signal;HPM_P1;HPM_P2
2021/09/14 00:02:02;;;;;;;6.15;5.65;;;;;;;17.83;75.38;100192.51;1695351;83;21648;-49
2021/09/14 00:04:28;;;;;;;7.35;5.87;;;;;;;17.79;75.59;100191.36;1718785;82;21066;-49
2021/09/14 00:06:54;;;;;;;8.05;5.67;;;;;;;17.73;75.78;100191.78;1735986;81;21028;-49
2021/09/14 00:09:21;;;;;;;6.47;5.83;;;;;;;17.68;75.95;100197.88;1727351;81;21587;-50
2021/09/14 00:11:47;;;;;;;4.95;4.67;;;;;;;17.67;75.72;100188.70;1730197;81;21141;-49
2021/09/14 00:14:15;;;;;;;5.22;4.87;;;;;;;17.67;75.80;100192.21;1738432;81;21058;-50
2021/09/14 00:16:43;;;;;;;5.53;5.12;;;;;;;17.69;75.81;100190.09;1731935;81;21025;-49
2021/09/14 00:19:09;;;;;;;6.00;5.50;;;;;;;17.69;75.73;100196.83;1736926;81;21032;-49
2021/09/14 00:21:36;;;;;;;6.60;6.17;;;;;;;17.64;75.84;100197.26;1736017;81;21130;-48
2021/09/14 00:24:04;;;;;;;7.47;5.78;;;;;;;17.59;76.01;100200.65;1739769;81;21023;-49
2021/09/14 00:26:30;;;;;;;6.12;5.62;;;;;;;17.58;76.04;100194.98;1739863;81;21127;-50
2021/09/14 00:28:56;;;;;;;5.72;5.22;;;;;;;17.62;75.73;100198.84;1739709;81;21106;-49
2021/09/14 00:31:25;;;;;;;6.10;5.65;;;;;;;17.60;75.71;100192.87;1739949;81;21114;-49
2021/09/14 00:33:52;;;;;;;8.48;6.60;;;;;;;17.58;75.84;100193.64;1742582;80;21043;-49
2021/09/14 00:36:18;;;;;;;6.70;6.17;;;;;;;17.52;75.86;100199.98;1732837;81;21079;-49
2021/09/14 00:38:45;;;;;;;6.28;5.90;;;;;;;17.43;75.88;100199.52;1739098;82;21567;-48
2021/09/14 00:41:12;;;;;;;6.55;5.90;;;;;;;17.44;75.91;100201.17;1751023;81;21051;-50
2021/09/14 00:43:39;;;;;;;5.72;5.25;;;;;;;17.47;75.64;100194.48;1746494;81;21983;-51
2021/09/14 00:46:06;;;;;;;6.12;5.53;;;;;;;17.46;75.29;100191.48;1743190;81;20951;-49
2021/09/14 00:48:32;;;;;;;6.55;6.05;;;;;;;17.40;75.48;100193.79;1742567;81;21150;-49
2021/09/14 00:51:00;;;;;;;6.25;5.72;;;;;;;17.34;75.50;100201.48;1743166;81;21130;-48
2021/09/14 00:53:27;;;;;;;;;;;;;;;17.28;75.75;100201.36;1736806;81;21019;-49
2021/09/14 00:55:56;;;;;;;5.53;5.12;;;;;;;17.27;75.67;100194.85;1739687;80;20470;-48
2021/09/14 00:58:22;;;;;;;6.95;5.55;;;;;;;17.23;75.69;100198.54;1741889;81;21019;-49
2021/09/14 01:00:49;;;;;;;5.42;5.12;;;;;;;17.21;75.94;100197.96;1720644;82;21058;-49
2021/09/14 01:03:15;;;;;;;9.48;6.67;;;;;;;17.17;75.84;100206.77;1726552;81;21136;-49
2021/09/14 01:05:41;;;;;;;6.70;6.10;;;;;;;17.07;76.39;100200.09;1732395;81;21626;-48
2021/09/14 01:08:07;;;;;;;;;;;;;;;17.01;76.36;100208.27;1784362;79;21069;-49
2021/09/14 01:10:37;;;;;;;6.40;6.00;;;;;;;17.00;76.51;100202.61;1733677;81;20510;-50
2021/09/14 01:13:05;;;;;;;7.67;6.12;;;;;;;17.00;76.49;100208.80;1724045;81;21177;-52
2021/09/14 01:15:32;;;;;;;6.65;6.25;;;;;;;17.01;76.40;100208.27;1704243;82;21025;-49
2021/09/14 01:18:00;;;;;;;6.33;5.83;;;;;;;16.99;76.44;100203.14;1678597;84;21118;-49
2021/09/14 01:20:27;;;;;;;6.17;5.80;;;;;;;16.96;76.36;100206.29;1708170;82;21596;-49
2021/09/14 01:22:55;;;;;;;6.05;5.65;;;;;;;16.91;76.09;100208.86;1704191;82;20988;-49
2021/09/14 01:25:23;;;;;;;;;;;;;;;16.92;76.47;100207.28;1714201;83;21100;-48
2021/09/14 01:27:52;;;;;;;6.05;5.22;;;;;;;17.00;76.17;100210.69;1722139;83;20142;-48
2021/09/14 01:30:20;;;;;;;6.25;5.87;;;;;;;16.97;75.99;100207.10;1714197;83;21028;-48
2021/09/14 01:32:51;;;;;;;6.87;6.28;;;;;;;16.92;76.04;100205.94;1714635;83;21013;-49
2021/09/14 01:35:20;;;;;;;6.10;5.60;;;;;;;16.89;76.11;100210.96;1716289;83;20977;-49
2021/09/14 01:37:49;;;;;;;5.75;5.35;;;;;;;16.84;76.16;100215.71;1715446;82;21009;-49
2021/09/14 01:40:16;;;;;;;5.33;4.87;;;;;;;16.85;76.29;100215.98;1704962;82;21561;-48
2021/09/14 01:42:45;;;;;;;5.78;5.28;;;;;;;16.89;76.02;100222.54;1660226;84;21638;-48
2021/09/14 01:45:14;;;;;;;6.03;5.33;;;;;;;16.91;75.96;100216.42;1722204;80;21496;-48
2021/09/14 01:47:42;;;;;;;5.65;5.15;;;;;;;16.92;75.93;100222.63;1766849;80;20977;-48
2021/09/14 01:50:14;;;;;;;5.60;5.22;;;;;;;16.85;76.03;100221.38;1760916;80;21043;-48
2021/09/14 01:52:40;;;;;;;6.00;5.55;;;;;;;16.78;76.24;100224.66;1773484;80;21008;-48
2021/09/14 01:55:11;;;;;;;5.33;4.97;;;;;;;16.74;76.36;100216.77;1750851;80;21053;-48
2021/09/14 01:57:41;;;;;;;6.92;6.35;;;;;;;16.75;76.20;100225.14;1729664;82;21575;-47
2021/09/14 02:00:21;;;;;;;7.72;6.08;;;;;;;16.77;76.21;100219.54;1717941;81;21171;-48
2021/09/14 02:30:15;;;;;;;5.62;5.12;;;;;;;16.58;76.35;100228.22;1753987;80;21021;-50
2021/09/14 02:59:25;;;;;;;6.35;5.85;;;;;;;16.29;76.70;100253.05;1773079;80;21035;-49
2021/09/14 03:01:52;;;;;;;6.75;6.20;;;;;;;16.31;76.55;100252.80;1774478;80;21106;-49
2021/09/14 03:04:19;;;;;;;5.65;5.25;;;;;;;16.32;76.40;100255.27;1728895;82;21111;-48
2021/09/14 03:06:46;;;;;;;6.30;5.70;;;;;;;16.29;76.21;100255.73;1729370;82;20984;-49
2021/09/14 03:09:21;;;;;;;6.35;5.65;;;;;;;16.25;76.65;100263.13;1738443;81;21076;-48
2021/09/14 03:11:49;;;;;;;6.00;5.50;;;;;;;16.20;76.76;100261.63;1733255;81;21327;-49
2021/09/14 03:14:17;;;;;;;5.65;5.28;;;;;;;16.19;76.95;100268.08;1743292;81;21876;-49
2021/09/14 04:16:42;;;;;;;6.28;5.83;;;;;;;18.23;69.46;100290.97;1724752;81;21046;-51
2021/09/14 04:19:09;;;;;;;7.45;6.95;;;;;;;18.74;67.82;100301.05;1736247;80;21288;-47
2021/09/14 04:21:36;;;;;;;6.25;5.75;;;;;;;19.26;66.23;100294.92;1731919;80;21663;-48
2021/09/14 04:25:40;;;;;;;7.08;6.58;;;;;;;20.01;62.78;100300.84;1782207;79;22775;-48
2021/09/14 04:28:07;;;;;;;7.62;6.72;;;;;;;20.33;61.81;100305.55;1737857;80;21141;-48
2021/09/14 04:30:34;;;;;;;7.30;6.62;;;;;;;20.65;60.42;100306.19;1742576;81;21025;-47
2021/09/14 04:33:01;;;;;;;8.93;6.80;;;;;;;20.93;59.50;100316.47;1751557;80;21072;-48
2021/09/14 04:35:28;;;;;;;9.85;6.62;;;;;;;20.91;58.81;100319.98;1747436;80;21113;-48
2021/09/14 04:37:55;;;;;;;7.62;6.72;;;;;;;20.69;59.11;100317.33;1736121;80;21022;-49
2021/09/14 04:40:21;;;;;;;7.35;6.67;;;;;;;20.35;59.40;100327.77;1720941;81;21614;-48
2021/09/14 04:42:48;;;;;;;6.83;6.22;;;;;;;19.56;60.25;100280.22;1705071;81;21590;-48
2021/09/14 04:45:16;;;;;;;7.03;6.45;;;;;;;19.36;61.95;100326.68;1672587;81;21000;-49
2021/09/14 04:47:42;;;;;;;;;;;;;;;19.03;63.22;100335.63;1649332;85;21101;-48
2021/09/14 04:50:10;;;;;;;7.47;6.75;;;;;;;18.75;64.01;100335.91;1632606;85;20153;-48
2021/09/14 04:52:36;;;;;;;6.50;5.90;;;;;;;18.60;64.79;100337.80;1644837;85;21179;-48
2021/09/14 04:55:06;;;;;;;6.95;5.25;;;;;;;18.74;64.41;100335.64;1654816;81;21096;-47
2021/09/14 04:57:32;;;;;;;7.03;6.45;;;;;;;19.13;63.87;100336.32;1647078;85;21541;-48
2021/09/14 04:59:58;;;;;;;7.50;6.80;;;;;;;19.71;62.06;100332.34;1649475;84;21032;-50
2021/09/14 05:02:56;;;;;;;5.97;5.47;;;;;;;20.29;59.60;100338.26;1642106;85;21171;-49
2021/09/14 05:05:24;;;;;;;8.00;5.75;;;;;;;20.87;57.95;100343.21;1653824;85;21753;-83
2021/09/14 05:07:51;;;;;;;5.87;5.40;;;;;;;21.47;56.02;100343.45;1627127;86;21631;-83
2021/09/14 05:10:17;;;;;;;6.78;6.17;;;;;;;21.89;54.87;100344.55;1606028;86;21142;-83
2021/09/14 05:12:46;;;;;;;6.60;5.50;;;;;;;22.28;53.92;100343.67;1648064;85;21041;-83
2021/09/14 05:15:14;;;;;;;6.60;6.08;;;;;;;22.69;52.99;100345.67;1653271;85;21061;-85
2021/09/14 05:17:46;;;;;;;7.60;7.00;;;;;;;23.10;51.10;100345.20;1646056;85;21108;-85
2021/09/14 05:20:17;;;;;;;5.47;5.08;;;;;;;23.44;49.92;100340.55;1658172;85;21161;-82
2021/09/14 05:22:43;;;;;;;6.35;5.75;;;;;;;23.66;48.87;100336.73;1657452;85;21127;-84
2021/09/14 05:25:10;;;;;;;6.92;5.28;;;;;;;23.85;49.01;100337.78;1661100;85;21383;-84
2021/09/14 05:27:36;;;;;;;5.78;5.22;;;;;;;24.06;48.53;100337.72;1658838;85;21132;-86
2021/09/14 05:30:04;;;;;;;5.15;4.70;;;;;;;24.21;47.97;100345.81;1657534;85;21130;-86
2021/09/14 05:32:31;;;;;;;6.42;5.75;;;;;;;24.36;47.39;100338.13;1652707;85;21657;-86
2021/09/14 05:34:59;;;;;;;4.90;4.60;;;;;;;24.59;46.46;100335.28;1658269;85;21089;-85
2021/09/14 05:37:25;;;;;;;6.03;5.42;;;;;;;24.86;45.81;100343.55;1644563;85;21152;-87
2021/09/14 05:39:52;;;;;;;6.12;5.35;;;;;;;25.08;45.33;100341.76;1665072;85;21049;-87
2021/09/14 05:42:19;;;;;;;4.90;4.35;;;;;;;25.14;45.17;100337.88;1666219;85;21193;-84
2021/09/14 05:44:47;;;;;;;8.05;4.90;;;;;;;25.16;44.52;100337.60;1649436;85;21086;-85
2021/09/14 05:47:15;;;;;;;5.62;5.12;;;;;;;25.18;44.11;100335.40;1633364;87;21092;-84
2021/09/14 05:49:41;;;;;;;6.62;5.87;;;;;;;24.94;44.66;100338.05;1625949;87;21086;-85
2021/09/14 05:52:08;;;;;;;5.25;4.87;;;;;;;24.70;45.33;100332.52;1611001;87;21133;-86
2021/09/14 05:54:34;;;;;;;6.67;5.92;;;;;;;24.64;45.61;100337.19;1622636;87;21090;-86
2021/09/14 05:57:02;;;;;;;6.17;5.65;;;;;;;24.79;45.10;100341.69;1671853;84;21747;-84
2021/09/14 05:59:30;;;;;;;6.85;6.33;;;;;;;24.92;45.28;100347.06;1680084;84;21536;-87
2021/09/14 06:01:56;;;;;;;5.15;4.25;;;;;;;25.18;44.35;100342.22;1625914;85;21135;-85
2021/09/14 06:04:23;;;;;;;5.40;4.90;;;;;;;25.31;43.66;100348.41;1587454;88;21085;-86
2021/09/14 06:06:57;;;;;;;4.78;4.45;;;;;;;25.37;43.53;100343.19;1580104;89;21117;-82
2021/09/14 06:09:25;;;;;;;5.35;4.90;;;;;;;25.24;43.65;100304.27;1556405;89;21217;-82
2021/09/14 06:11:52;;;;;;;5.12;4.78;;;;;;;25.56;42.84;100343.80;1594186;88;21111;-83
2021/09/14 06:14:18;;;;;;;5.25;4.85;;;;;;;25.23;43.45;100299.94;1575731;89;21048;-80
2021/09/14 06:16:46;;;;;;;5.10;4.65;;;;;;;25.49;43.36;100344.72;1584052;88;21618;-80
2021/09/14 06:19:13;;;;;;;5.22;4.80;;;;;;;25.56;43.34;100341.07;1595992;88;21581;-82
2021/09/14 06:21:41;;;;;;;4.45;4.22;;;;;;;25.48;43.16;100340.34;1598147;88;21206;-81
2021/09/14 06:24:10;;;;;;;5.40;4.87;;;;;;;25.22;44.07;100341.38;1591405;87;21157;-81
2021/09/14 06:26:36;;;;;;;5.50;4.65;;;;;;;25.15;44.24;100344.17;1606110;88;21135;-80
2021/09/14 06:29:03;;;;;;;5.80;4.78;;;;;;;25.27;44.06;100332.35;1604152;88;21102;-82
2021/09/14 06:31:31;;;;;;;4.67;4.37;;;;;;;25.44;43.59;100338.74;1598417;88;21097;-79
2021/09/14 06:33:57;;;;;;;5.37;5.03;;;;;;;25.45;43.49;100337.09;1606193;88;21184;-81
2021/09/14 06:36:25;;;;;;;4.53;4.17;;;;;;;25.36;43.51;100338.82;1591381;88;21129;-81
2021/09/14 06:38:53;;;;;;;6.12;4.12;;;;;;;25.15;43.88;100337.36;1603024;88;21167;-80
2021/09/14 06:41:19;;;;;;;8.70;5.62;;;;;;;24.85;44.38;100329.67;1602005;88;21116;-81
2021/09/14 06:43:46;;;;;;;4.62;4.28;;;;;;;24.34;45.34;100334.06;1590084;88;21119;-82
2021/09/14 06:46:14;;;;;;;5.12;4.20;;;;;;;23.80;46.45;100336.98;1614054;86;21105;-82
2021/09/14 06:48:42;;;;;;;4.12;3.90;;;;;;;23.28;47.70;100341.13;1592336;88;21174;-81
2021/09/14 06:51:09;;;;;;;4.53;4.12;;;;;;;22.78;49.05;100339.17;1593917;88;21083;-80
2021/09/14 06:53:36;;;;;;;4.25;3.95;;;;;;;22.36;50.09;100343.70;1596670;88;21267;-82
2021/09/14 06:56:06;;;;;;;6.35;5.65;;;;;;;22.05;51.00;100348.95;1610801;88;21441;-82
2021/09/14 06:58:35;;;;;;;3.62;3.40;;;;;;;21.77;51.48;100352.36;1598639;88;21318;-81
2021/09/14 07:01:05;;;;;;;5.40;3.37;;;;;;;21.26;51.91;100305.06;1609311;86;21628;-82
2021/09/14 07:03:33;;;;;;;4.47;4.08;;;;;;;21.31;52.61;100350.65;1626512;86;21159;-81
2021/09/14 07:06:00;;;;;;;5.90;4.40;;;;;;;21.13;53.77;100358.63;1624276;86;21119;-83
2021/09/14 07:08:28;;;;;;;4.58;4.12;;;;;;;21.02;54.10;100352.86;1618901;87;21694;-80
2021/09/14 07:10:55;;;;;;;5.30;4.17;;;;;;;20.88;55.51;100355.70;1627556;87;21148;-84
2021/09/14 07:13:23;;;;;;;4.25;3.87;;;;;;;20.83;55.42;100351.58;1629440;86;21069;-84
2021/09/14 07:15:49;;;;;;;3.45;3.15;;;;;;;20.77;54.67;100356.94;1627048;87;21009;-81
2021/09/14 07:18:16;;;;;;;3.77;3.00;;;;;;;20.71;55.04;100360.67;1633246;87;21121;-83
2021/09/14 07:20:42;;;;;;;;;;;;;;;20.65;54.63;100364.95;1635188;87;21099;-82
2021/09/14 07:23:09;;;;;;;2.50;2.17;;;;;;;20.54;55.11;100370.75;1625172;86;20197;-82
2021/09/14 07:25:40;;;;;;;4.17;2.87;;;;;;;20.40;54.74;100372.50;1623202;87;21178;-83
2021/09/14 07:28:10;;;;;;;4.40;3.65;;;;;;;20.41;54.94;100376.02;1625013;87;21127;-82
2021/09/14 07:30:39;;;;;;;4.75;3.50;;;;;;;20.51;55.14;100376.66;1641004;87;21073;-82
2021/09/14 07:33:05;;;;;;;3.52;3.33;;;;;;;20.61;54.83;100378.19;1633385;86;21638;-80
2021/09/14 07:35:32;;;;;;;9.55;3.95;;;;;;;20.66;55.05;100376.05;1624838;87;21134;-83
2021/09/14 07:37:58;;;;;;;3.87;3.37;;;;;;;20.70;54.91;100380.72;1632358;87;21029;-83
2021/09/14 07:40:28;;;;;;;3.47;3.27;;;;;;;20.76;54.54;100374.82;1635838;87;21598;-82
2021/09/14 07:42:57;;;;;;;4.00;2.98;;;;;;;20.79;54.39;100368.36;1628315;87;21176;-82
2021/09/14 07:45:30;;;;;;;2.60;2.50;;;;;;;20.83;54.05;100372.70;1612320;86;21720;-81
2021/09/14 07:47:57;;;;;;;3.87;3.17;;;;;;;20.87;53.97;100369.79;1622880;87;21662;-82
2021/09/14 07:50:23;;;;;;;4.65;3.00;;;;;;;20.95;53.59;100368.51;1629432;86;21388;-83
2021/09/14 07:52:51;;;;;;;3.65;3.45;;;;;;;21.09;53.26;100364.83;1623528;87;21088;-82
2021/09/14 07:55:17;;;;;;;;;;;;;;;21.20;53.17;100363.30;1628470;87;21605;-82
2021/09/14 07:57:45;;;;;;;4.35;3.22;;;;;;;21.28;52.69;100355.22;1598804;88;20196;-82
2021/09/14 08:00:12;;;;;;;4.60;4.05;;;;;;;21.26;53.07;100360.09;1575954;88;21582;-83
2021/09/14 08:02:38;;;;;;;4.47;3.85;;;;;;;21.31;53.00;100364.75;1592012;88;21137;-81
2021/09/14 08:05:07;;;;;;;4.95;4.55;;;;;;;21.35;53.18;100363.15;1598608;88;21678;-82
2021/09/14 08:07:34;;;;;;;7.55;3.75;;;;;;;21.41;52.77;100362.10;1598767;88;21703;-82
2021/09/14 08:10:00;;;;;;;5.45;4.37;;;;;;;21.46;52.79;100370.86;1597637;88;21124;-83
2021/09/14 08:12:26;;;;;;;;;;;;;;;21.50;52.83;100361.12;1602882;87;21130;-84
2021/09/14 08:14:54;;;;;;;4.72;3.52;;;;;;;21.57;52.39;100362.53;1614016;88;20200;-82
2021/09/14 08:17:22;;;;;;;4.35;2.83;;;;;;;21.56;52.17;100369.02;1595766;88;21661;-83
2021/09/14 08:19:48;;;;;;;5.05;3.00;;;;;;;21.58;51.59;100366.86;1596057;88;21093;-82
2021/09/14 08:22:15;;;;;;;4.08;2.40;;;;;;;21.61;51.46;100359.31;1599360;88;21087;-82
2021/09/14 08:24:41;;;;;;;2.72;1.87;;;;;;;21.67;51.32;100359.06;1606805;88;21698;-83
2021/09/14 08:27:08;;;;;;;1.57;1.47;;;;;;;21.69;50.36;100354.19;1625013;88;21089;-82
2021/09/14 08:29:34;;;;;;;4.47;1.87;;;;;;;21.71;50.37;100357.45;1621712;88;20995;-83
2021/09/14 08:32:02;;;;;;;4.53;1.70;;;;;;;21.74;50.73;100354.23;1604703;88;21108;-82
2021/09/14 08:34:28;;;;;;;1.32;1.22;;;;;;;21.74;50.04;100355.59;1633891;86;22268;-81
2021/09/14 08:36:54;;;;;;;1.65;1.55;;;;;;;21.75;50.16;100356.39;1623664;86;21175;-84
2021/09/14 08:39:21;;;;;;;4.05;1.30;;;;;;;21.76;50.16;100356.14;1625797;87;21592;-85
2021/09/14 08:41:47;;;;;;;3.87;1.40;;;;;;;21.79;49.91;100346.64;1616053;87;21826;-83
2021/09/14 08:44:14;;;;;;;3.25;2.45;;;;;;;21.85;49.76;100355.11;1622562;87;21876;-83
2021/09/14 08:46:42;;;;;;;2.55;1.37;;;;;;;21.89;48.64;100354.05;1623519;87;21184;-83
2021/09/14 08:49:12;;;;;;;1.95;0.90;;;;;;;21.92;48.70;100352.95;1597139;88;21165;-83
2021/09/14 08:51:39;;;;;;;1.45;0.80;;;;;;;21.96;48.09;100353.25;1616850;87;21073;-84
2021/09/14 08:54:05;;;;;;;2.45;2.22;;;;;;;21.95;48.25;100356.52;1620771;87;21228;-83
2021/09/14 08:56:36;;;;;;;2.10;1.27;;;;;;;22.02;48.62;100356.28;1623012;87;21081;-83
2021/09/14 08:59:05;;;;;;;4.37;1.87;;;;;;;22.14;48.35;100359.59;1624119;87;21089;-85
2021/09/14 09:01:32;;;;;;;1.50;0.80;;;;;;;22.27;47.99;100351.53;1620230;87;21114;-82
2021/09/14 09:04:05;;;;;;;1.80;0.80;;;;;;;22.39;47.71;100347.77;1638152;86;21120;-83
2021/09/14 09:06:38;;;;;;;6.33;1.02;;;;;;;22.46;46.61;100345.63;1614327;86;21067;-82
2021/09/14 09:09:22;;;;;;;2.02;0.98;;;;;;;22.48;46.72;100351.59;1621471;86;21210;-83
2021/09/14 09:11:59;;;;;;;2.15;1.50;;;;;;;22.47;46.62;100351.31;1625605;87;21029;-83
2021/09/14 09:14:41;;;;;;;1.07;0.65;;;;;;;22.50;46.67;100349.43;1628880;87;21171;-84
2021/09/14 09:17:14;;;;;;;1.25;1.15;;;;;;;22.50;46.23;100348.87;1622102;87;21140;-84
2021/09/14 09:20:00;;;;;;;1.42;0.93;;;;;;;22.49;46.91;100346.42;1623138;87;21566;-81
2021/09/14 09:22:28;;;;;;;1.95;1.20;;;;;;;22.50;46.53;100350.23;1623617;87;21061;-86
2021/09/14 09:24:55;;;;;;;5.42;0.98;;;;;;;22.49;46.56;100343.70;1620576;87;21215;-86
2021/09/14 09:27:26;;;;;;;1.25;0.68;;;;;;;22.49;46.29;100342.35;1618626;87;21190;-82
2021/09/14 09:30:08;;;;;;;2.25;0.95;;;;;;;22.51;46.38;100349.17;1576934;89;21093;-84
2021/09/14 09:32:46;;;;;;;0.80;0.80;;;;;;;22.51;46.08;100347.81;1617775;87;21037;-82
2021/09/14 09:35:26;;;;;;;1.30;1.02;;;;;;;22.47;46.22;100344.52;1620206;87;21649;-84
2021/09/14 09:37:53;;;;;;;1.95;1.72;;;;;;;22.46;46.56;100336.12;1625869;85;21010;-84
2021/09/14 09:40:31;;;;;;;1.47;1.30;;;;;;;22.49;46.81;100336.92;1622068;87;21062;-82
2021/09/14 09:43:00;;;;;;;2.72;1.15;;;;;;;22.53;47.19;100337.49;1623608;87;21125;-82
2021/09/14 09:45:27;;;;;;;1.77;0.98;;;;;;;22.55;47.22;100341.30;1620261;87;21143;-85
2021/09/14 09:47:54;;;;;;;2.10;1.15;;;;;;;22.54;46.93;100332.87;1623387;87;21122;-86
2021/09/14 09:50:20;;;;;;;0.90;0.82;;;;;;;22.48;46.88;100339.38;1619849;88;21643;-81
2021/09/14 09:52:47;;;;;;;2.20;1.10;;;;;;;22.47;47.15;100340.45;1596567;88;21087;-83
2021/09/14 09:55:13;;;;;;;2.15;1.05;;;;;;;22.51;46.73;100337.50;1619569;87;21125;-84
2021/09/14 09:57:40;;;;;;;2.37;1.10;;;;;;;22.53;46.53;100342.12;1623706;87;21090;-84
2021/09/14 10:00:12;;;;;;;2.12;1.52;;;;;;;22.51;46.41;100344.28;1625152;87;21094;-85
2021/09/14 10:03:01;;;;;;;8.13;2.17;;;;;;;22.42;46.46;100333.67;1626403;87;21170;-81
2021/09/14 10:05:33;;;;;;;5.33;2.27;;;;;;;22.40;46.66;100335.84;1627033;86;21203;-84
2021/09/14 10:08:08;;;;;;;6.00;1.20;;;;;;;22.48;47.33;100348.33;1623161;87;21195;-84
2021/09/14 10:10:40;;;;;;;1.05;0.70;;;;;;;22.59;46.88;100346.47;1624087;87;21727;-84
2021/09/14 10:13:10;;;;;;;2.20;0.57;;;;;;;22.68;46.15;100336.71;1602806;87;21556;-83
2021/09/14 10:15:42;;;;;;;2.45;0.50;;;;;;;22.76;46.12;100350.86;1628451;87;21036;-83
2021/09/14 10:18:11;;;;;;;1.55;0.60;;;;;;;22.80;45.57;100339.72;1627356;87;21619;-83
2021/09/14 10:20:45;;;;;;;0.62;0.53;;;;;;;22.80;45.50;100331.56;1630539;87;21096;-83
2021/09/14 10:23:22;;;;;;;1.15;0.47;;;;;;;22.81;45.55;100338.61;1612679;86;21235;-82
2021/09/14 10:25:53;;;;;;;2.85;0.80;;;;;;;22.91;45.43;100337.28;1649396;85;21128;-84
2021/09/14 10:28:20;;;;;;;2.17;0.85;;;;;;;22.95;45.19;100337.01;1643042;86;21112;-83
2021/09/14 10:30:48;;;;;;;1.60;0.60;;;;;;;22.97;46.06;100340.82;1649775;85;21045;-84
2021/09/14 10:33:27;;;;;;;3.37;2.02;;;;;;;23.02;46.25;100344.36;1649296;85;21217;-84
2021/09/14 10:35:55;;;;;;;2.90;1.57;;;;;;;22.98;46.25;100337.00;1621893;87;21251;-81
2021/09/14 10:38:23;;;;;;;1.65;0.80;;;;;;;22.80;46.49;100340.52;1619047;87;21654;-83
2021/09/14 10:40:52;;;;;;;3.55;1.02;;;;;;;22.68;46.65;100344.05;1621774;87;21084;-85
2021/09/14 10:43:26;;;;;;;1.82;0.90;;;;;;;22.56;46.75;100345.64;1617551;87;21128;-83
2021/09/14 10:45:54;;;;;;;3.87;0.70;;;;;;;22.52;46.87;100345.91;1609281;87;21700;-85
2021/09/14 10:48:27;;;;;;;2.80;0.88;;;;;;;22.47;47.40;100348.08;1622781;87;22171;-83
2021/09/14 10:50:57;;;;;;;1.92;0.75;;;;;;;22.44;46.89;100342.36;1621033;87;21590;-84
2021/09/14 10:53:29;;;;;;;1.52;1.02;;;;;;;22.33;47.22;100343.67;1618372;87;22073;-82
2021/09/14 10:56:00;;;;;;;1.60;0.93;;;;;;;22.30;47.20;100344.22;1628261;85;21073;-84
2021/09/14 10:58:29;;;;;;;2.50;1.25;;;;;;;22.33;48.11;100338.78;1638374;85;21126;-84
2021/09/14 11:00:55;;;;;;;2.22;0.65;;;;;;;22.35;47.77;100340.14;1655836;85;21116;-83
2021/09/14 11:03:22;;;;;;;1.15;1.05;;;;;;;22.29;47.85;100339.86;1619263;85;21575;-84
2021/09/14 11:05:56;;;;;;;1.35;0.78;;;;;;;22.23;47.61;100339.54;1649158;85;21723;-84
2021/09/14 11:08:25;;;;;;;1.95;1.12;;;;;;;22.17;47.58;100343.33;1658490;85;21156;-82
2021/09/14 11:10:59;;;;;;;1.27;1.15;;;;;;;22.14;47.86;100338.42;1647175;85;21246;-84
2021/09/14 11:13:30;;;;;;;2.70;1.00;;;;;;;22.11;47.97;100345.20;1661526;85;21085;-85
2021/09/14 11:16:02;;;;;;;0.90;0.70;;;;;;;22.05;48.02;100340.81;1646677;85;21594;-84
2021/09/14 11:18:32;;;;;;;1.95;1.17;;;;;;;21.99;48.43;100338.36;1649989;85;21054;-83
2021/09/14 11:21:10;;;;;;;1.35;1.05;;;;;;;21.94;47.73;100326.41;1647784;85;21214;-83
2021/09/14 11:23:41;;;;;;;1.37;1.02;;;;;;;21.94;47.99;100335.06;1620786;87;21074;-84
2021/09/14 11:26:14;;;;;;;2.45;1.12;;;;;;;21.95;48.15;100336.16;1648793;85;21148;-86
2021/09/14 11:28:54;;;;;;;3.35;1.07;;;;;;;21.98;48.07;100328.02;1648438;85;21058;-85
2021/09/14 11:31:21;;;;;;;5.83;1.40;;;;;;;22.07;48.02;100321.55;1654528;85;21528;-83
2021/09/14 11:33:48;;;;;;;4.03;1.55;;;;;;;22.17;48.28;100329.75;1646815;85;22218;-83
2021/09/14 11:36:15;;;;;;;3.80;1.60;;;;;;;22.22;48.50;100331.11;1647689;85;21649;-85
2021/09/14 11:38:47;;;;;;;0.82;0.65;;;;;;;22.23;48.57;100321.89;1640529;85;21621;-82
2021/09/14 11:41:15;;;;;;;3.00;1.20;;;;;;;22.25;46.62;100322.47;1626702;85;21116;-84
2021/09/14 11:43:42;;;;;;;2.15;1.07;;;;;;;22.27;47.02;100321.66;1665406;85;21153;-84
2021/09/14 11:46:17;;;;;;;5.10;1.30;;;;;;;22.38;46.91;100312.17;1647243;85;21096;-83
2021/09/14 11:49:00;;;;;;;3.20;0.35;;;;;;;22.49;46.15;100309.76;1646398;85;21552;-83
2021/09/14 11:51:40;;;;;;;1.10;0.95;;;;;;;22.58;45.66;100308.16;1618770;86;21160;-83
2021/09/14 11:54:13;;;;;;;2.25;0.90;;;;;;;22.65;45.93;100301.11;1646279;85;21521;-85
2021/09/14 11:56:42;;;;;;;0.57;0.57;;;;;;;22.72;45.54;100300.31;1642248;85;21172;-84
2021/09/14 11:59:17;;;;;;;0.88;0.88;;;;;;;22.80;44.34;100322.86;1643265;85;21090;-83
2021/09/14 12:01:45;;;;;;;3.10;1.20;;;;;;;22.80;45.51;100309.83;1647861;85;21647;-83
2021/09/14 12:04:19;;;;;;;1.15;0.70;;;;;;;22.73;46.26;100301.92;1646927;85;21111;-84
2021/09/14 12:06:53;;;;;;;3.35;0.82;;;;;;;22.64;46.15;100317.97;1649422;85;21164;-84
2021/09/14 12:09:25;;;;;;;0.50;0.50;;;;;;;22.55;47.05;100311.42;1643872;85;21219;-86
2021/09/14 12:12:02;;;;;;;3.00;0.78;;;;;;;22.47;45.69;100308.70;1652413;85;21045;-85
2021/09/14 12:14:28;;;;;;;1.70;1.27;;;;;;;22.41;46.12;100315.73;1622291;87;21129;-84
2021/09/14 12:16:58;;;;;;;1.45;0.88;;;;;;;22.35;46.25;100309.47;1598805;87;21094;-85
2021/09/14 12:19:27;;;;;;;1.15;0.65;;;;;;;22.30;46.32;100313.00;1621961;87;21196;-83
2021/09/14 12:21:54;;;;;;;1.17;0.70;;;;;;;22.30;46.91;100323.86;1617626;87;21597;-85
2021/09/14 12:24:23;;;;;;;2.90;0.78;;;;;;;22.22;47.64;100322.96;1627525;86;21169;-83
2021/09/14 12:26:55;;;;;;;3.17;1.00;;;;;;;22.12;47.97;100318.87;1631719;86;21778;-86
2021/09/14 12:29:19;;;;;;;1.02;0.80;;;;;;;22.01;47.83;100319.91;1630913;86;21097;-84
2021/09/14 12:31:48;;;;;;;0.95;0.53;;;;;;;21.96;48.06;100321.52;1631333;86;21101;-83
2021/09/14 12:34:16;;;;;;;2.70;0.45;;;;;;;21.96;48.11;100326.11;1625095;86;21046;-86
2021/09/14 12:36:46;;;;;;;1.55;0.75;;;;;;;22.00;48.54;100320.98;1631166;86;21159;-83
2021/09/14 12:39:13;;;;;;;3.45;0.70;;;;;;;22.02;48.20;100319.65;1631092;86;21137;-85
2021/09/14 12:41:41;;;;;;;2.40;1.02;;;;;;;22.05;48.66;100318.29;1631460;86;21253;-83
2021/09/14 12:44:09;;;;;;;1.95;1.17;;;;;;;22.09;49.35;100319.39;1620279;86;21156;-85
2021/09/14 12:46:36;;;;;;;5.15;0.47;;;;;;;22.12;49.34;100324.30;1617127;87;21085;-88
2021/09/14 12:49:02;;;;;;;1.77;0.75;;;;;;;22.11;49.77;100330.80;1616665;87;21077;-83
2021/09/14 12:51:31;;;;;;;3.87;0.95;;;;;;;22.09;49.51;100336.48;1619068;87;21109;-86
2021/09/14 12:53:59;;;;;;;5.08;1.62;;;;;;;22.00;49.12;100332.67;1619832;87;21082;-83
2021/09/14 12:56:25;;;;;;;2.65;0.90;;;;;;;21.59;49.37;100295.83;1638155;86;21167;-82
2021/09/14 12:58:51;;;;;;;1.15;0.78;;;;;;;21.78;49.67;100340.96;1634269;86;21095;-81
2021/09/14 13:01:18;;;;;;;2.00;1.00;;;;;;;21.68;49.86;100340.37;1631384;86;21203;-83
2021/09/14 13:03:46;;;;;;;0.93;0.90;;;;;;;21.57;50.63;100344.91;1649932;86;21567;-83
2021/09/14 13:06:13;;;;;;;1.25;0.65;;;;;;;21.52;51.04;100342.15;1638521;86;21143;-82
2021/09/14 13:08:39;;;;;;;1.45;0.60;;;;;;;21.52;51.18;100335.37;1607857;88;21108;-83
2021/09/14 13:11:07;;;;;;;3.90;0.78;;;;;;;21.54;51.19;100338.63;1630461;85;21068;-84
2021/09/14 13:16:21;;;;;;;3.67;0.78;;;;;;;21.40;51.66;100344.22;1608707;88;21115;-52
2021/09/14 13:18:52;;;;;;;2.58;1.98;;;;;;;21.35;51.60;100334.13;1609959;86;21076;-52
2021/09/14 13:21:22;;;;;;;1.67;1.30;;;;;;;21.34;52.08;100337.94;1615801;88;21056;-54
2021/09/14 13:23:51;;;;;;;3.12;0.85;;;;;;;21.33;52.29;100338.20;1611407;85;21089;-52
2021/09/14 13:26:20;;;;;;;2.72;1.22;;;;;;;21.31;52.25;100339.00;1617614;88;21160;-53
2021/09/14 13:28:49;;;;;;;0.78;0.78;;;;;;;21.28;52.40;100347.09;1608818;88;22073;-53
2021/09/14 13:31:15;;;;;;;2.70;0.78;;;;;;;21.26;52.52;100341.11;1603617;88;21143;-53
2021/09/14 13:33:42;;;;;;;1.90;1.20;;;;;;;21.24;53.07;100339.20;1603580;85;21092;-53